Time;durP1;ratioP1;P1;durP2;ratioP2;P2;SDS_P1;SDS_P2;PMS_P1;PMS_P2;Temp;Humidity;BMP_temperature;BMP_pressure;BME280_temperature;BME280_humidity;BME280_pressure;Samples;Min_cycle;Max_cycle;Signal;HPM_P1;HPM_P2
2022/03/02 00:00:45;;;;;;;9.00;7.47;;;2.60;72.80;;;2.21;53.48;95409.44;5053624;28;20455;-58
2022/03/02 00:03:13;;;;;;;12.03;8.43;;;2.50;72.50;;;2.21;53.32;95411.22;5060814;28;20491;-57
2022/03/02 00:05:41;;;;;;;10.90;7.70;;;2.50;72.50;;;2.18;52.84;95400.97;5055189;28;20526;-54
2022/03/02 00:08:08;;;;;;;8.00;6.97;;;2.50;72.50;;;2.16;53.32;95403.66;5061809;28;20460;-56
2022/03/02 00:10:35;;;;;;;12.97;7.93;;;2.50;72.50;;;2.14;53.01;95400.31;5058345;28;20536;-56
2022/03/02 00:13:02;;;;;;;12.03;8.77;;;2.50;72.50;;;2.12;52.82;95391.72;5056272;28;20451;-57
2022/03/02 00:15:30;;;;;;;11.20;7.93;;;2.40;72.40;;;2.10;52.65;95388.38;5057712;28;20448;-55
2022/03/02 00:17:57;;;;;;;12.80;8.10;;;2.40;72.40;;;2.09;52.66;95392.75;5060837;28;20509;-56
2022/03/02 00:20:26;;;;;;;11.70;8.20;;;2.40;72.80;;;2.04;52.74;95389.50;5059158;28;20466;-59
2022/03/02 00:22:53;;;;;;;12.10;8.87;;;2.40;72.40;;;2.00;53.25;95384.56;5057189;28;20447;-56
2022/03/02 00:25:20;;;;;;;11.77;9.00;;;2.30;72.30;;;1.97;52.80;95385.56;5058359;28;20452;-57
2022/03/02 00:27:48;;;;;;;13.27;9.17;;;2.30;72.80;;;1.96;53.27;95384.69;5057739;28;20468;-56
2022/03/02 00:30:15;;;;;;;13.80;8.67;;;2.30;72.70;;;1.92;52.87;95382.34;5056498;28;20484;-59
2022/03/02 00:32:43;;;;;;;13.30;9.27;;;2.20;72.70;;;1.90;53.14;95381.56;5052956;28;20459;-58
2022/03/02 00:35:10;;;;;;;14.57;8.80;;;2.20;73.20;;;1.88;53.10;95378.22;5055003;28;20474;-58
2022/03/02 00:37:38;;;;;;;19.87;10.03;;;2.20;73.30;;;1.85;54.14;95380.97;5054995;28;20464;-57
2022/03/02 00:40:07;;;;;;;11.00;8.50;;;2.20;73.30;;;1.83;52.97;95372.41;5057667;28;20530;-58
2022/03/02 00:42:35;;;;;;;10.67;8.40;;;2.10;73.20;;;1.82;54.05;95365.56;5055691;28;20460;-57
2022/03/02 00:45:02;;;;;;;10.30;8.43;;;2.10;73.40;;;1.79;53.65;95364.78;5057856;28;20478;-56
2022/03/02 00:47:30;;;;;;;10.60;8.43;;;2.10;73.40;;;1.77;53.01;95364.00;5058784;28;20459;-57
2022/03/02 00:49:58;;;;;;;13.87;9.30;;;2.10;73.70;;;1.75;53.65;95358.06;5056848;28;20491;-57
2022/03/02 00:52:26;;;;;;;12.57;7.23;;;2.10;73.30;;;1.74;52.63;95360.75;5054658;28;20451;-55
2022/03/02 00:54:55;;;;;;;10.93;7.17;;;2.00;72.90;;;1.71;52.86;95353.94;5059009;28;20462;-54
2022/03/02 00:57:22;;;;;;;13.40;8.50;;;2.00;72.60;;;1.69;53.40;95349.72;5059763;28;20482;-57
2022/03/02 00:59:49;;;;;;;9.37;7.30;;;2.00;72.40;;;1.68;52.66;95341.13;5061120;28;20474;-56
2022/03/02 01:02:16;;;;;;;9.37;6.27;;;2.00;72.30;;;1.67;52.64;95343.78;5055216;28;20998;-57
2022/03/02 01:04:44;;;;;;;7.83;7.03;;;2.00;72.00;;;1.64;52.69;95343.94;5055560;28;20471;-56
2022/03/02 01:07:11;;;;;;;12.17;6.77;;;2.00;71.90;;;1.60;52.90;95333.72;5058245;28;20482;-56
2022/03/02 01:09:38;;;;;;;8.10;7.30;;;1.90;71.60;;;1.57;52.50;95339.03;5058722;28;20496;-57
2022/03/02 01:12:07;;;;;;;8.53;7.63;;;1.90;71.70;;;1.56;52.67;95326.16;5057679;28;20451;-58
2022/03/02 01:14:34;;;;;;;7.13;6.47;;;1.90;71.70;;;1.55;52.87;95330.50;5055571;28;20468;-57
2022/03/02 01:17:01;;;;;;;12.43;7.80;;;1.90;71.70;;;1.54;52.20;95325.41;5055166;28;20450;-58
2022/03/02 01:19:29;;;;;;;13.07;7.77;;;1.90;71.80;;;1.52;53.13;95324.63;5057050;28;20471;-57
2022/03/02 01:21:56;;;;;;;7.57;6.10;;;1.90;71.90;;;1.50;52.24;95321.28;5055454;28;20462;-56
2022/03/02 01:24:24;;;;;;;9.37;6.60;;;1.90;71.90;;;1.49;53.38;95327.34;5054244;28;20501;-58
2022/03/02 01:26:51;;;;;;;9.40;7.37;;;1.80;71.80;;;1.47;52.28;95326.59;5055543;28;21015;-58
2022/03/02 01:29:20;;;;;;;7.20;6.43;;;1.80;71.80;;;1.46;52.14;95317.13;5053479;28;20471;-55
2022/03/02 01:31:47;;;;;;;7.50;6.17;;;1.80;71.80;;;1.42;52.68;95322.47;5055630;28;20459;-57
2022/03/02 01:34:14;;;;;;;7.70;6.60;;;1.80;71.90;;;1.40;53.54;95316.53;5058311;28;20472;-57
2022/03/02 01:36:41;;;;;;;10.30;6.70;;;1.80;72.20;;;1.38;52.87;95320.94;5054911;28;20454;-56
2022/03/02 01:39:09;;;;;;;8.63;6.40;;;1.80;72.10;;;1.37;52.80;95316.66;5061185;28;20494;-58
2022/03/02 01:41:37;;;;;;;9.83;7.40;;;1.70;72.10;;;1.36;53.30;95303.78;5062345;28;20463;-58
2022/03/02 01:44:04;;;;;;;8.17;7.37;;;1.70;72.30;;;1.35;53.19;95313.31;5060459;28;20549;-57
2022/03/02 01:46:33;;;;;;;10.30;8.23;;;1.70;72.30;;;1.33;53.04;95307.34;5060667;28;20827;-56
2022/03/02 01:49:00;;;;;;;12.10;6.60;;;1.70;72.40;;;1.30;52.64;95310.13;5059818;28;20460;-57
2022/03/02 01:51:27;;;;;;;8.07;6.87;;;1.60;72.00;;;1.26;52.39;95293.03;5064357;28;20551;-58
2022/03/02 01:53:55;;;;;;;9.17;7.30;;;1.60;72.00;;;1.21;53.02;95300.19;5059156;28;20471;-58
2022/03/02 01:56:22;;;;;;;8.60;6.83;;;1.60;72.00;;;1.18;53.62;95301.16;5064919;28;20808;-58
2022/03/02 01:58:49;;;;;;;10.30;7.30;;;1.50;72.20;;;1.15;52.61;95293.53;5061606;28;20479;-57
2022/03/02 02:01:17;;;;;;;7.00;6.00;;;1.50;72.10;;;1.14;52.89;95302.22;5063714;28;20484;-58
2022/03/02 02:03:46;;;;;;;10.47;5.97;;;1.50;72.20;;;1.12;53.11;95296.28;5057365;28;20822;-54
2022/03/02 02:06:13;;;;;;;9.37;5.63;;;1.50;72.00;;;1.13;52.61;95291.91;5063139;28;20447;-58
2022/03/02 02:08:41;;;;;;;8.10;6.17;;;1.40;71.90;;;1.12;53.35;95288.50;5067028;28;20649;-56
2022/03/02 02:11:09;;;;;;;7.00;6.30;;;1.40;71.90;;;1.12;53.29;95279.91;5065020;28;20518;-58
2022/03/02 02:13:36;;;;;;;6.67;5.23;;;1.50;72.00;;;1.13;52.87;95285.00;5065151;28;20462;-58
2022/03/02 02:16:05;;;;;;;6.93;6.23;;;1.50;72.00;;;1.14;52.64;95283.25;5057944;28;20470;-56
2022/03/02 02:18:32;;;;;;;6.37;5.80;;;1.50;72.00;;;1.13;53.37;95277.25;5059048;28;20463;-57
2022/03/02 02:21:03;;;;;;;6.07;5.17;;;1.50;71.90;;;1.14;52.92;95278.91;5060278;28;20506;-60
2022/03/02 02:23:31;;;;;;;7.80;5.87;;;1.50;71.60;;;1.13;53.25;95276.38;5061545;28;20490;-57
2022/03/02 02:25:58;;;;;;;7.90;6.23;;;1.50;71.50;;;1.11;52.16;95278.22;5060649;28;20460;-56
2022/03/02 02:28:27;;;;;;;6.33;5.57;;;1.50;71.60;;;1.11;52.94;95283.41;5060909;28;20472;-54
2022/03/02 02:30:55;;;;;;;5.60;5.00;;;1.50;71.60;;;1.10;52.78;95285.16;5061475;28;20486;-59
2022/03/02 02:33:23;;;;;;;4.87;4.40;;;1.50;71.60;;;1.10;52.76;95282.56;5061705;28;20515;-56
2022/03/02 02:35:50;;;;;;;5.10;4.63;;;1.40;71.40;;;1.08;52.67;95279.19;5056744;28;20509;-54
2022/03/02 02:38:20;;;;;;;5.53;5.00;;;1.50;71.20;;;1.07;51.62;95278.34;5059072;28;20482;-57
2022/03/02 02:40:47;;;;;;;6.80;4.70;;;1.40;71.00;;;1.07;52.37;95277.53;5056704;28;21146;-57
2022/03/02 02:43:16;;;;;;;3.90;3.70;;;1.40;71.00;;;1.04;52.32;95278.50;5061155;28;20475;-55
2022/03/02 02:45:43;;;;;;;7.43;5.23;;;1.40;70.90;;;1.02;51.92;95290.69;5059183;28;20455;-58
2022/03/02 02:48:10;;;;;;;5.70;5.07;;;1.40;70.80;;;1.00;52.67;95282.13;5059891;28;20986;-54
2022/03/02 02:50:38;;;;;;;5.37;4.83;;;1.30;70.50;;;0.96;52.10;95278.03;5061644;28;20522;-56
2022/03/02 02:53:08;;;;;;;6.07;5.57;;;1.30;70.60;;;0.91;52.23;95279.97;5060016;28;20463;-56
2022/03/02 02:55:37;;;;;;;6.30;5.40;;;1.30;70.70;;;0.86;53.01;95281.94;5057746;28;20833;-58
2022/03/02 02:58:04;;;;;;;10.73;5.07;;;1.20;70.70;;;0.80;52.29;95280.47;5060415;28;20446;-56
2022/03/02 03:00:34;;;;;;;7.63;5.17;;;1.20;71.10;;;0.74;52.25;95277.34;5062635;28;20510;-55
2022/03/02 03:03:01;;;;;;;5.77;5.27;;;1.10;71.10;;;0.69;52.73;95277.53;5058267;28;20444;-57
2022/03/02 03:05:31;;;;;;;6.30;5.50;;;1.00;71.70;;;0.66;52.56;95273.34;5059673;28;20504;-56
2022/03/02 03:08:01;;;;;;;6.17;5.57;;;1.00;72.10;;;0.64;53.29;95275.16;5055064;28;20448;-57
2022/03/02 03:10:28;;;;;;;6.00;5.33;;;1.00;72.10;;;0.62;53.32;95276.13;5052810;28;20491;-58
2022/03/02 03:12:57;;;;;;;7.70;5.27;;;1.00;72.30;;;0.59;53.34;95277.13;5055257;28;20552;-55
2022/03/02 03:15:24;;;;;;;8.30;6.47;;;1.00;72.90;;;0.60;53.54;95273.63;5058779;28;20553;-56
2022/03/02 03:17:51;;;;;;;7.40;5.43;;;0.90;73.10;;;0.59;53.53;95274.53;5053581;28;20482;-55
2022/03/02 03:20:20;;;;;;;7.90;6.20;;;0.90;73.80;;;0.60;53.69;95278.78;5054023;28;20505;-55
2022/03/02 03:22:48;;;;;;;7.23;6.10;;;0.90;74.00;;;0.60;54.26;95277.97;5055467;28;20460;-55
2022/03/02 03:25:15;;;;;;;7.67;5.17;;;0.90;74.00;;;0.58;53.89;95280.63;5060240;28;20464;-57
2022/03/02 03:27:43;;;;;;;8.53;6.53;;;0.90;74.00;;;0.55;53.95;95285.94;5056609;28;20459;-57
2022/03/02 03:30:13;;;;;;;8.40;6.37;;;0.90;74.00;;;0.52;53.85;95275.72;5057215;28;20582;-57
2022/03/02 03:32:41;;;;;;;9.20;6.30;;;0.90;74.50;;;0.50;54.35;95278.38;5055276;28;20474;-58
2022/03/02 03:35:12;;;;;;;8.80;7.20;;;0.80;74.70;;;0.51;54.89;95281.78;5057421;28;21077;-55
2022/03/02 03:37:39;;;;;;;9.23;6.03;;;0.80;75.20;;;0.51;54.99;95277.47;5056928;28;21491;-57
2022/03/02 03:40:08;;;;;;;9.97;7.30;;;0.90;75.90;;;0.53;54.77;95272.22;5057730;28;21068;-56
2022/03/02 03:42:35;;;;;;;7.40;6.60;;;0.90;75.90;;;0.55;54.85;95270.41;5058306;28;20524;-58
2022/03/02 03:45:03;;;;;;;9.10;6.43;;;0.90;75.90;;;0.57;54.76;95272.91;5057341;28;20473;-58
2022/03/02 03:47:32;;;;;;;10.90;6.80;;;0.90;76.30;;;0.61;54.67;95274.47;5060776;28;20444;-59
2022/03/02 03:49:59;;;;;;;9.07;6.90;;;0.90;76.10;;;0.62;54.89;95274.41;5057627;28;20475;-58
2022/03/02 03:52:26;;;;;;;7.70;6.50;;;0.90;76.30;;;0.65;55.00;95276.84;5063342;28;20443;-59
2022/03/02 03:54:54;;;;;;;9.00;6.90;;;1.00;76.80;;;0.68;55.25;95279.31;5061712;28;20471;-55
2022/03/02 03:57:21;;;;;;;15.50;7.70;;;1.00;76.20;;;0.74;54.96;95277.34;5056206;28;20455;-57
2022/03/02 03:59:48;;;;;;;8.60;7.33;;;1.10;76.70;;;0.79;54.54;95273.63;5057157;28;20555;-59
2022/03/02 04:02:16;;;;;;;8.03;7.23;;;1.10;76.50;;;0.82;54.79;95267.44;5056284;28;20465;-58
2022/03/02 04:04:44;;;;;;;9.77;7.33;;;1.10;76.50;;;0.83;54.43;95256.19;5056378;28;20480;-56
2022/03/02 04:07:12;;;;;;;9.17;7.53;;;1.20;76.40;;;0.89;55.07;95269.69;5058773;28;20872;-56
2022/03/02 04:09:39;;;;;;;11.00;8.13;;;1.20;76.40;;;0.95;55.28;95272.91;5057509;28;20524;-58
2022/03/02 04:12:07;;;;;;;9.93;7.00;;;1.30;76.50;;;0.98;54.63;95263.25;5056302;28;20849;-58
2022/03/02 04:14:35;;;;;;;9.77;7.33;;;1.30;76.70;;;1.00;54.82;95264.00;5056243;28;20464;-57
2022/03/02 04:17:02;;;;;;;6.97;6.37;;;1.40;76.70;;;1.04;54.71;95262.13;5052878;28;20451;-56
2022/03/02 04:19:29;;;;;;;8.83;7.23;;;1.40;76.80;;;1.06;55.37;95261.13;5057530;28;20571;-56
2022/03/02 04:21:58;;;;;;;12.60;7.17;;;1.40;76.60;;;1.07;54.47;95257.63;5055028;28;20460;-56
2022/03/02 04:24:25;;;;;;;14.70;8.30;;;1.40;76.40;;;1.09;55.11;95254.97;5060272;28;20474;-56
2022/03/02 04:26:52;;;;;;;9.77;7.10;;;1.40;76.70;;;1.11;54.58;95252.31;5052525;28;20444;-57
2022/03/02 04:29:20;;;;;;;14.03;7.30;;;1.40;76.60;;;1.11;54.96;95257.50;5054565;28;20846;-56
2022/03/02 04:31:47;;;;;;;9.43;7.33;;;1.40;76.80;;;1.13;55.33;95261.69;5054781;28;20494;-58
2022/03/02 04:34:14;;;;;;;14.17;7.80;;;1.50;77.10;;;1.16;55.85;95261.56;5054217;28;20479;-56
2022/03/02 04:36:41;;;;;;;13.50;9.00;;;1.50;77.40;;;1.19;55.14;95265.72;5054154;28;20483;-56
2022/03/02 04:39:10;;;;;;;19.20;7.40;;;1.50;77.10;;;1.22;55.37;95260.41;5058646;28;20462;-56
2022/03/02 04:41:37;;;;;;;13.50;7.70;;;1.50;77.10;;;1.26;55.76;95259.34;5060711;28;20458;-57
2022/03/02 04:44:06;;;;;;;8.83;7.47;;;1.60;77.40;;;1.28;55.88;95262.69;5054615;28;20470;-56
2022/03/02 04:46:33;;;;;;;11.00;7.63;;;1.60;77.50;;;1.32;55.57;95266.00;5060314;28;20459;-55
2022/03/02 04:49:10;;;;;;;12.33;8.20;;;1.60;77.90;;;1.32;54.91;95260.81;5057366;28;20479;-56
2022/03/02 04:51:38;;;;;;;10.90;7.90;;;1.70;77.90;;;1.37;56.03;95259.66;5058848;28;20487;-56
2022/03/02 04:54:06;;;;;;;18.40;9.00;;;1.70;79.00;;;1.40;55.52;95249.16;5052555;28;20511;-57
2022/03/02 04:56:35;;;;;;;8.27;7.00;;;1.70;78.50;;;1.42;55.36;95254.25;5057351;28;20458;-58
2022/03/02 04:59:03;;;;;;;11.80;7.47;;;1.70;78.50;;;1.45;56.63;95240.31;5057369;28;20474;-54
2022/03/02 05:01:30;;;;;;;9.73;7.40;;;1.70;79.10;;;1.45;55.35;95241.16;5061863;28;20482;-56
2022/03/02 05:03:57;;;;;;;11.40;7.40;;;1.80;79.00;;;1.46;56.15;95247.16;5060655;28;21093;-56
2022/03/02 05:06:25;;;;;;;10.70;8.10;;;1.80;80.40;;;1.47;56.73;95243.66;5061126;28;20447;-57
2022/03/02 05:08:52;;;;;;;9.37;7.23;;;1.80;81.00;;;1.49;56.75;95257.38;5057544;28;20484;-55
2022/03/02 05:11:19;;;;;;;9.27;7.13;;;1.80;80.00;;;1.46;56.03;95248.00;5056340;28;20487;-57
2022/03/02 05:13:48;;;;;;;10.70;7.70;;;1.80;79.70;;;1.45;56.56;95245.50;5060760;28;20481;-56
2022/03/02 05:16:15;;;;;;;10.10;7.53;;;1.70;80.70;;;1.43;56.52;95254.19;5061378;28;20456;-55
2022/03/02 05:18:44;;;;;;;8.70;7.50;;;1.70;80.50;;;1.42;55.81;95254.25;5062414;28;20596;-57
2022/03/02 05:21:12;;;;;;;11.97;8.40;;;1.70;80.40;;;1.45;56.56;95250.69;5060783;28;20487;-53
2022/03/02 05:23:40;;;;;;;11.77;8.13;;;1.70;81.00;;;1.47;56.33;95254.03;5059653;28;20522;-56
2022/03/02 05:26:07;;;;;;;10.47;7.93;;;1.80;80.60;;;1.48;56.96;95246.19;5060164;28;20461;-57
2022/03/02 05:28:34;;;;;;;12.40;8.50;;;1.80;81.10;;;1.50;56.56;95249.53;5061379;28;20467;-56
2022/03/02 05:31:03;;;;;;;8.63;7.13;;;1.80;80.90;;;1.53;56.59;95243.34;5057758;28;20494;-58
2022/03/02 05:33:30;;;;;;;14.17;8.00;;;1.80;81.10;;;1.54;56.72;95239.88;5060099;28;20471;-58
2022/03/02 05:35:58;;;;;;;11.43;7.10;;;1.80;80.90;;;1.57;56.23;95247.50;5055921;28;20562;-58
2022/03/02 05:38:25;;;;;;;16.70;9.60;;;1.90;80.80;;;1.58;57.22;95250.00;5057155;28;20539;-57
2022/03/02 05:40:52;;;;;;;14.43;9.27;;;1.90;81.20;;;1.63;57.02;95252.38;5061803;28;20465;-58
2022/03/02 05:43:19;;;;;;;8.03;7.23;;;1.90;81.20;;;1.67;57.93;95247.84;5058687;28;20579;-56
2022/03/02 05:45:47;;;;;;;11.27;7.30;;;2.00;81.40;;;1.70;56.57;95248.53;5061625;28;20852;-54
2022/03/02 05:48:15;;;;;;;12.97;8.80;;;2.00;81.30;;;1.74;57.79;95252.66;5057666;28;20490;-57
2022/03/02 05:50:43;;;;;;;13.57;9.40;;;2.00;82.90;;;1.76;57.96;95250.81;5050818;28;20463;-55
2022/03/02 05:53:10;;;;;;;12.93;8.97;;;2.10;82.10;;;1.78;57.31;95251.59;5057943;28;20478;-56
2022/03/02 05:55:37;;;;;;;13.70;7.93;;;2.10;82.40;;;1.83;56.48;95250.50;5053989;28;20660;-57
2022/03/02 05:58:04;;;;;;;13.83;7.80;;;2.10;82.30;;;1.85;57.80;95244.34;5055814;28;20447;-55
2022/03/02 06:00:32;;;;;;;9.93;8.23;;;2.10;82.60;;;1.89;57.65;95250.19;5063890;28;20525;-57
2022/03/02 06:02:59;;;;;;;11.27;8.10;;;2.20;82.30;;;1.89;58.14;95248.47;5056556;28;21001;-58
2022/03/02 06:05:28;;;;;;;28.67;9.10;;;2.20;82.50;;;1.94;56.70;95254.25;5061572;28;20551;-56
2022/03/02 06:07:55;;;;;;;22.37;8.80;;;2.20;82.20;;;1.96;57.64;95259.34;5058112;28;20532;-57
2022/03/02 06:10:24;;;;;;;16.60;8.80;;;2.20;82.00;;;2.00;56.67;95258.28;5058729;28;20941;-57
2022/03/02 06:12:52;;;;;;;12.67;8.93;;;2.30;82.10;;;2.05;57.46;95261.47;5059372;28;20486;-54
2022/03/02 06:15:19;;;;;;;14.17;9.17;;;2.30;82.10;;;2.09;56.62;95265.59;5057765;28;20447;-56
2022/03/02 06:17:48;;;;;;;10.80;9.30;;;2.40;82.30;;;2.16;57.32;95260.94;5065845;28;20446;-58
2022/03/02 06:20:16;;;;;;;16.73;9.63;;;2.40;81.70;;;2.18;56.86;95266.88;5065436;28;20990;-58
2022/03/02 06:22:46;;;;;;;10.10;8.37;;;2.50;83.00;;;2.23;56.57;95264.03;5061892;28;20455;-55
2022/03/02 06:25:15;;;;;;;13.47;8.77;;;2.50;82.20;;;2.26;57.13;95253.50;5062610;28;20505;-57
2022/03/02 06:27:42;;;;;;;13.57;10.07;;;2.60;81.90;;;2.29;57.36;95240.38;5059382;28;20459;-56
2022/03/02 06:30:11;;;;;;;17.43;10.80;;;2.60;81.90;;;2.35;56.38;95249.59;5059765;28;20537;-57
2022/03/02 06:32:38;;;;;;;16.70;11.83;;;2.60;81.90;;;2.38;57.33;95245.06;5060351;28;20497;-56
2022/03/02 06:35:07;;;;;;;15.80;11.50;;;2.70;82.00;;;2.43;56.48;95250.88;5062653;28;20479;-57
2022/03/02 06:37:34;;;;;;;24.93;11.50;;;2.70;82.00;;;2.46;56.90;95245.53;5059222;28;20490;-56
2022/03/02 06:40:03;;;;;;;18.30;11.43;;;2.70;82.00;;;2.47;57.06;95241.16;5059543;28;20472;-56
2022/03/02 06:42:35;;;;;;;19.47;10.90;;;2.80;82.10;;;2.46;57.70;95245.53;5061032;28;20452;-57
2022/03/02 06:45:08;;;;;;;15.67;10.50;;;2.80;82.80;;;2.42;57.01;95236.22;5059106;28;20463;-58
2022/03/02 06:47:42;;;;;;;15.80;10.70;;;2.70;81.50;;;2.41;57.19;95239.72;5060641;28;20800;-54
2022/03/02 06:50:11;;;;;;;16.20;11.87;;;2.70;82.00;;;2.40;56.68;95238.06;5058710;28;20483;-56
2022/03/02 06:52:40;;;;;;;20.47;11.73;;;2.70;82.00;;;2.43;56.47;95243.09;5061513;28;20494;-57
2022/03/02 06:55:10;;;;;;;20.50;11.93;;;2.70;82.00;;;2.47;56.85;95247.19;5066174;28;20536;-57
2022/03/02 06:57:38;;;;;;;16.73;10.97;;;2.70;82.00;;;2.55;57.78;95236.38;5061419;28;20444;-55
2022/03/02 07:00:08;;;;;;;24.03;11.70;;;2.80;82.10;;;2.61;56.79;95237.84;5055889;28;20468;-57
2022/03/02 07:02:39;;;;;;;15.03;10.20;;;2.90;82.20;;;2.65;56.93;95234.13;5057626;28;20486;-57
2022/03/02 07:05:08;;;;;;;16.93;11.40;;;2.90;82.10;;;2.69;56.47;95225.25;5056439;28;20503;-57
2022/03/02 07:07:36;;;;;;;15.27;11.07;;;3.00;82.20;;;2.76;57.23;95228.34;5057997;28;20566;-58
2022/03/02 07:10:04;;;;;;;16.57;10.30;;;3.00;82.30;;;2.80;56.37;95225.50;5053445;28;20567;-57
2022/03/02 07:12:33;;;;;;;23.07;11.37;;;3.00;81.80;;;2.87;57.03;95220.84;5053299;28;20494;-56
2022/03/02 07:15:00;;;;;;;13.20;10.20;;;3.10;82.30;;;2.93;56.90;95225.69;5052743;28;20480;-56
2022/03/02 07:17:31;;;;;;;15.20;9.80;;;3.10;81.90;;;2.98;56.75;95222.84;5052969;28;20459;-56
2022/03/02 07:19:59;;;;;;;19.80;10.70;;;3.20;81.90;;;3.03;55.84;95223.41;5056449;28;20483;-58
2022/03/02 07:22:31;;;;;;;16.13;10.57;;;3.30;81.60;;;3.11;56.75;95216.00;5058166;28;20460;-57
2022/03/02 07:25:04;;;;;;;15.50;10.73;;;3.30;81.20;;;3.16;56.39;95219.22;5057816;28;20520;-58
2022/03/02 07:27:33;;;;;;;16.77;10.30;;;3.40;81.00;;;3.20;56.17;95212.91;5058089;28;20471;-58
2022/03/02 07:30:00;;;;;;;11.20;9.30;;;3.40;81.10;;;3.22;55.61;95218.88;5054382;28;20487;-56
2022/03/02 07:32:33;;;;;;;12.27;10.20;;;3.50;80.70;;;3.27;56.82;95220.34;5053524;28;20484;-58
2022/03/02 07:35:03;;;;;;;10.37;8.40;;;3.50;81.40;;;3.29;55.83;95223.72;5059540;28;20468;-59
2022/03/02 07:37:30;;;;;;;12.60;9.90;;;3.50;80.90;;;3.28;56.48;95209.03;5055732;28;20529;-57
2022/03/02 07:39:57;;;;;;;14.50;10.23;;;3.50;80.80;;;3.31;55.81;95214.06;5056172;28;20499;-57
2022/03/02 07:42:25;;;;;;;15.80;10.20;;;3.50;80.40;;;3.31;56.13;95211.47;5059156;28;20451;-53
2022/03/02 07:44:54;;;;;;;15.90;11.43;;;3.50;80.50;;;3.28;56.46;95206.44;5060799;28;20466;-57
2022/03/02 07:47:22;;;;;;;12.80;10.17;;;3.50;80.70;;;3.27;55.67;95196.97;5060063;28;20466;-56
2022/03/02 07:49:49;;;;;;;17.03;11.20;;;3.50;80.90;;;3.25;56.63;95196.22;5059522;28;20483;-58
2022/03/02 07:52:17;;;;;;;20.47;10.90;;;3.50;81.10;;;3.27;55.91;95202.16;5059910;28;20519;-58
2022/03/02 07:54:44;;;;;;;16.83;11.03;;;3.50;81.10;;;3.29;55.72;95195.13;5061123;28;20483;-55
2022/03/02 07:57:13;;;;;;;17.27;10.40;;;3.50;81.00;;;3.31;56.13;95201.06;5059093;28;20462;-57
2022/03/02 07:59:42;;;;;;;12.13;9.00;;;3.50;81.00;;;3.35;56.21;95199.97;5060847;28;20536;-58
2022/03/02 08:02:11;;;;;;;14.83;10.27;;;3.60;81.60;;;3.34;56.26;95196.53;5056511;28;20459;-57
2022/03/02 08:04:39;;;;;;;10.20;8.93;;;3.60;81.70;;;3.35;56.25;95189.56;5056673;28;20471;-57
2022/03/02 08:07:07;;;;;;;16.87;11.93;;;3.60;82.60;;;3.38;56.13;95189.41;5058884;28;20454;-58
2022/03/02 08:09:34;;;;;;;16.20;11.43;;;3.60;82.00;;;3.45;56.92;95189.88;5056394;28;20463;-57
2022/03/02 08:12:01;;;;;;;16.37;10.43;;;3.70;81.80;;;3.49;56.24;95192.22;5055658;28;20496;-56
2022/03/02 08:14:29;;;;;;;15.10;10.60;;;3.70;81.40;;;3.49;55.70;95183.59;5054228;28;20621;-56
2022/03/02 08:16:56;;;;;;;18.43;12.10;;;3.70;81.00;;;3.47;56.69;95186.28;5054939;28;20494;-57
2022/03/02 08:19:25;;;;;;;18.80;11.57;;;3.70;81.50;;;3.49;56.26;95192.22;5057743;28;20486;-57
2022/03/02 08:21:57;;;;;;;19.47;10.83;;;3.70;81.40;;;3.54;55.80;95184.13;5054332;28;20589;-58
2022/03/02 08:24:26;;;;;;;22.13;11.30;;;3.80;81.40;;;3.56;56.09;95188.34;5050312;28;20541;-58
2022/03/02 08:26:58;;;;;;;17.53;11.73;;;3.80;81.40;;;3.64;56.24;95193.09;5055344;28;20455;-56
2022/03/02 08:29:27;;;;;;;23.83;12.67;;;3.80;81.20;;;3.71;55.82;95188.34;5060327;28;20865;-58
2022/03/02 08:31:54;;;;;;;17.77;12.83;;;3.90;81.10;;;3.74;55.57;95188.19;5051405;28;20495;-58
2022/03/02 08:34:22;;;;;;;16.80;11.43;;;3.90;81.00;;;3.76;56.29;95181.97;5050149;28;20472;-57
2022/03/02 08:36:50;;;;;;;18.90;13.57;;;4.00;80.90;;;3.85;55.44;95182.34;5053967;28;20456;-58
2022/03/02 08:39:17;;;;;;;20.87;13.97;;;4.00;80.80;;;3.94;55.50;95182.63;5053536;28;20613;-56
2022/03/02 08:41:45;;;;;;;24.10;11.40;;;4.10;80.80;;;4.10;55.74;95179.91;5057562;28;20875;-57
2022/03/02 08:44:12;;;;;;;17.63;11.70;;;4.30;80.50;;;4.23;55.71;95168.75;5059349;28;20471;-58
2022/03/02 08:46:40;;;;;;;22.07;13.40;;;4.40;80.20;;;4.41;54.99;95166.81;5056405;28;20585;-57
2022/03/02 08:49:07;;;;;;;17.87;12.33;;;4.50;80.10;;;4.59;54.84;95173.47;5060502;28;20467;-56
2022/03/02 08:51:36;;;;;;;18.97;12.50;;;4.70;79.40;;;4.80;54.43;95173.06;5057474;28;20500;-61
2022/03/02 08:54:05;;;;;;;15.87;10.93;;;4.90;79.10;;;5.01;53.80;95160.44;5059024;28;20504;-57
2022/03/02 08:56:35;;;;;;;17.77;12.57;;;5.20;78.30;;;5.23;53.67;95162.47;5059075;28;20455;-56
2022/03/02 08:59:03;;;;;;;22.83;13.97;;;5.30;77.70;;;5.46;52.93;95165.34;5061711;28;20516;-57
2022/03/02 09:01:30;;;;;;;23.53;14.57;;;5.60;76.60;;;5.65;53.37;95163.19;5056797;28;20458;-57
2022/03/02 09:04:00;;;;;;;25.93;13.93;;;5.80;76.50;;;6.03;53.02;95151.97;5059905;28;20478;-57
2022/03/02 09:06:28;;;;;;;16.93;13.70;;;6.10;76.20;;;6.52;51.45;95146.88;5059053;28;20454;-57
2022/03/02 09:08:56;;;;;;;20.70;13.97;;;6.50;74.80;;;7.15;51.21;95143.19;5059469;28;20470;-57
2022/03/02 09:11:24;;;;;;;23.43;14.50;;;7.10;74.10;;;7.88;49.91;95143.91;5059312;28;20943;-57
2022/03/02 09:13:51;;;;;;;25.30;14.90;;;7.70;72.70;;;8.58;48.49;95143.81;5059753;28;20498;-56
2022/03/02 09:16:19;;;;;;;19.63;13.23;;;8.40;70.70;;;9.26;47.74;95136.59;5059873;28;20459;-58
2022/03/02 09:18:47;;;;;;;18.57;13.97;;;9.00;69.00;;;9.82;46.93;95135.53;5059741;28;20458;-58
2022/03/02 09:21:15;;;;;;;20.87;14.30;;;9.60;66.50;;;10.15;45.83;95140.69;5056980;28;21044;-57
2022/03/02 09:23:42;;;;;;;22.37;15.30;;;10.00;62.50;;;10.37;44.71;95139.72;5060624;28;21025;-57
2022/03/02 09:26:12;;;;;;;21.33;14.67;;;10.30;59.30;;;10.54;44.66;95130.38;5061460;28;20455;-54
2022/03/02 09:28:42;;;;;;;21.07;14.97;;;10.50;59.30;;;10.73;44.01;95130.41;5056441;28;20477;-56
2022/03/02 09:31:11;;;;;;;17.73;13.30;;;10.70;57.50;;;10.91;42.56;95124.53;5052358;28;20534;-58
2022/03/02 09:33:39;;;;;;;21.63;15.23;;;10.90;55.60;;;11.26;43.83;95120.53;5053903;28;20488;-55
2022/03/02 09:36:08;;;;;;;22.07;14.40;;;11.20;57.70;;;11.84;43.36;95115.22;5053964;28;20459;-56
2022/03/02 09:38:35;;;;;;;19.53;14.50;;;11.70;57.40;;;12.45;41.68;95113.13;5055803;28;20472;-56
2022/03/02 09:41:06;;;;;;;20.53;14.80;;;12.20;55.60;;;12.88;40.64;95109.03;5054529;28;20813;-56
2022/03/02 09:43:35;;;;;;;24.20;15.40;;;12.70;53.70;;;13.22;40.66;95115.50;5056477;28;20466;-58
2022/03/02 09:46:06;;;;;;;21.60;15.83;;;13.00;53.40;;;13.58;39.20;95115.53;5058013;28;20461;-56
2022/03/02 09:48:35;;;;;;;23.00;14.00;;;13.40;51.30;;;13.97;39.68;95099.28;5054753;28;21038;-56
2022/03/02 09:51:04;;;;;;;23.00;15.40;;;13.80;52.00;;;14.42;38.94;95102.69;5052492;28;20464;-57
2022/03/02 09:53:32;;;;;;;19.73;14.57;;;14.20;51.30;;;14.76;37.82;95100.06;5049887;28;20930;-57
2022/03/02 09:56:02;;;;;;;18.60;15.00;;;14.60;48.90;;;14.84;37.65;95102.75;5053246;28;20455;-56
2022/03/02 09:58:30;;;;;;;21.20;14.17;;;14.70;48.40;;;14.89;36.83;95094.34;5052535;28;20472;-57
2022/03/02 10:00:59;;;;;;;21.43;14.60;;;14.80;47.00;;;14.93;36.98;95097.47;5059858;28;20454;-57
2022/03/02 10:03:33;;;;;;;20.37;14.03;;;14.90;47.00;;;15.02;36.32;95099.16;5054268;28;20475;-56
2022/03/02 10:06:04;;;;;;;16.03;13.40;;;14.90;46.70;;;15.02;36.17;95091.22;5059563;28;20832;-57
2022/03/02 10:08:33;;;;;;;22.83;14.87;;;14.90;44.90;;;14.84;35.98;95092.16;5062812;28;20475;-56
2022/03/02 10:11:04;;;;;;;17.23;12.50;;;14.80;46.00;;;14.64;36.15;95083.66;5063927;28;20452;-57
2022/03/02 10:13:31;;;;;;;17.27;12.90;;;14.70;45.60;;;14.36;35.82;95090.94;5057917;28;20578;-56
2022/03/02 10:15:59;;;;;;;21.23;14.27;;;14.50;44.60;;;14.12;36.05;95083.69;5059603;28;20518;-54
2022/03/02 10:18:27;;;;;;;20.13;14.30;;;14.30;44.40;;;14.06;35.61;95081.69;5063036;28;20490;-57
2022/03/02 10:21:00;;;;;;;17.30;12.57;;;14.10;44.60;;;14.08;33.31;95072.59;5060886;28;20451;-55
2022/03/02 10:23:40;;;;;;;16.30;11.13;;;14.10;41.30;;;14.09;34.66;95076.06;5062698;28;20479;-55
2022/03/02 10:26:12;;;;;;;20.13;12.67;;;14.10;42.90;;;14.13;36.18;95078.25;5060762;28;20453;-55
2022/03/02 10:29:00;;;;;;;20.20;13.53;;;14.10;45.00;;;14.23;33.55;95067.53;5062705;28;20467;-56